Time;durP1;ratioP1;P1;durP2;ratioP2;P2;SDS_P1;SDS_P2;PMS_P1;PMS_P2;Temp;Humidity;BMP_temperature;BMP_pressure;BME280_temperature;BME280_humidity;BME280_pressure;Samples;Min_cycle;Max_cycle;Signal;HPM_P1;HPM_P2
2022/09/16 00:01:16;;;;;;;9.03;5.90;;;15.40;88.10;;;;;;5042323;28;20184;-71
2022/09/16 00:03:42;;;;;;;11.47;5.90;;;15.40;88.40;;;;;;5042381;28;20239;-72
2022/09/16 00:06:19;;;;;;;8.37;5.90;;;15.50;88.10;;;;;;5046980;28;20461;-71
2022/09/16 00:08:46;;;;;;;11.60;5.47;;;15.50;87.70;;;;;;5043573;28;20227;-71
2022/09/16 00:11:11;;;;;;;8.63;4.90;;;15.50;87.80;;;;;;5044473;28;20443;-72
2022/09/16 00:13:37;;;;;;;8.03;5.50;;;15.60;87.30;;;;;;5046480;28;20968;-72
2022/09/16 00:16:07;;;;;;;8.10;5.03;;;15.70;87.30;;;;;;5041340;28;20188;-71
2022/09/16 00:18:33;;;;;;;8.10;5.63;;;15.70;87.00;;;;;;5041241;28;20212;-72
2022/09/16 00:20:58;;;;;;;9.77;6.17;;;15.70;86.90;;;;;;5042125;28;20797;-71
2022/09/16 00:23:24;;;;;;;7.90;5.90;;;15.80;86.50;;;;;;5042029;28;20230;-71
2022/09/16 00:25:51;;;;;;;7.37;5.03;;;15.80;86.60;;;;;;5044982;28;20879;-72
2022/09/16 00:28:18;;;;;;;7.90;5.80;;;15.70;86.50;;;;;;5041968;28;20184;-72
2022/09/16 00:30:43;;;;;;;7.60;5.60;;;15.70;86.90;;;;;;5047123;28;20469;-71
2022/09/16 00:33:09;;;;;;;10.47;6.43;;;15.60;87.00;;;;;;5043334;28;20457;-72
2022/09/16 00:35:35;;;;;;;7.37;5.20;;;15.70;87.10;;;;;;5045296;28;20212;-72
2022/09/16 00:38:00;;;;;;;7.90;5.13;;;15.70;87.10;;;;;;5051859;28;21389;-71
2022/09/16 00:40:26;;;;;;;9.60;5.87;;;15.70;87.10;;;;;;5050822;28;20601;-72
2022/09/16 00:42:52;;;;;;;7.47;5.40;;;15.70;86.90;;;;;;5049722;28;20655;-71
2022/09/16 00:45:27;;;;;;;7.77;5.77;;;15.80;87.00;;;;;;5056987;28;20329;-72
2022/09/16 00:48:00;;;;;;;11.10;6.10;;;15.70;87.10;;;;;;5044033;28;20180;-72
2022/09/16 00:50:55;;;;;;;8.23;5.30;;;15.60;87.40;;;;;;5044363;28;20424;-72
2022/09/16 00:53:25;;;;;;;9.87;6.00;;;15.60;88.00;;;;;;5038805;28;20419;-71
2022/09/16 00:55:55;;;;;;;9.30;6.07;;;15.70;88.00;;;;;;5037634;28;20520;-72
2022/09/16 00:58:50;;;;;;;11.83;6.10;;;15.70;87.80;;;;;;5042891;28;20435;-72
2022/09/16 01:01:15;;;;;;;9.50;6.33;;;15.60;88.30;;;;;;4979139;28;20433;-71
2022/09/16 01:03:48;;;;;;;10.37;6.57;;;15.60;88.40;;;;;;4983432;28;20953;-72
2022/09/16 01:06:15;;;;;;;8.67;6.13;;;15.60;88.40;;;;;;4984731;28;20720;-71
2022/09/16 01:08:42;;;;;;;11.90;7.20;;;15.60;87.80;;;;;;4984488;28;20437;-72
2022/09/16 01:11:07;;;;;;;7.90;5.80;;;15.70;87.60;;;;;;4983390;28;20549;-72
2022/09/16 01:13:33;;;;;;;10.20;5.87;;;15.60;87.80;;;;;;4985377;28;20550;-73
2022/09/16 01:16:15;;;;;;;7.67;6.07;;;15.50;87.80;;;;;;4981602;28;20305;-72
2022/09/16 01:18:51;;;;;;;10.47;6.00;;;15.60;88.10;;;;;;4986079;28;20520;-72
2022/09/16 01:21:42;;;;;;;9.57;6.17;;;15.50;87.80;;;;;;4984205;28;20835;-73
2022/09/16 01:24:13;;;;;;;10.40;5.83;;;15.40;88.00;;;;;;4979200;28;20489;-71
2022/09/16 01:26:54;;;;;;;9.93;6.20;;;15.40;88.30;;;;;;4986330;28;20430;-71
2022/09/16 01:29:29;;;;;;;11.30;7.00;;;15.40;88.40;;;;;;4992360;28;20419;-74
2022/09/16 01:32:08;;;;;;;8.80;5.53;;;15.50;88.30;;;;;;4992244;28;20440;-74
2022/09/16 01:34:48;;;;;;;8.87;5.30;;;15.50;88.00;;;;;;4985119;28;20474;-73
2022/09/16 01:37:30;;;;;;;8.43;6.47;;;15.40;88.10;;;;;;4998899;28;20438;-72
2022/09/16 01:40:07;;;;;;;7.37;5.37;;;15.40;88.10;;;;;;5045501;28;20437;-72
2022/09/16 01:42:39;;;;;;;9.50;6.10;;;15.40;88.30;;;;;;5039430;28;20549;-72
2022/09/16 01:45:19;;;;;;;11.63;6.90;;;15.30;88.30;;;;;;5048752;28;20994;-74
2022/09/16 01:47:48;;;;;;;9.70;6.70;;;15.10;89.00;;;;;;5045271;28;20427;-72
2022/09/16 01:50:19;;;;;;;8.77;6.03;;;15.00;89.70;;;;;;5044615;28;20427;-73
2022/09/16 01:53:02;;;;;;;10.87;5.60;;;15.10;89.50;;;;;;5037399;28;20744;-73
2022/09/16 01:56:00;;;;;;;8.77;6.23;;;15.00;89.60;;;;;;5043464;28;21003;-73
2022/09/16 01:58:38;;;;;;;11.10;6.33;;;15.00;89.50;;;;;;4988482;28;20917;-74
2022/09/16 02:01:11;;;;;;;11.50;6.20;;;15.00;89.50;;;;;;4988750;28;20433;-72
2022/09/16 02:03:42;;;;;;;10.73;5.87;;;15.00;89.00;;;;;;4983690;28;20515;-74
2022/09/16 02:06:11;;;;;;;7.03;5.50;;;15.10;88.70;;;;;;4982158;28;20474;-72
2022/09/16 02:08:37;;;;;;;8.80;5.77;;;15.10;88.40;;;;;;4986173;28;20469;-72
2022/09/16 02:11:06;;;;;;;9.13;6.20;;;14.90;88.10;;;;;;4983938;28;20455;-75
2022/09/16 02:13:41;;;;;;;10.10;5.40;;;14.90;88.60;;;;;;4984685;28;20197;-73
2022/09/16 02:16:15;;;;;;;10.47;5.60;;;15.00;88.30;;;;;;4982189;28;20467;-73
2022/09/16 02:18:44;;;;;;;9.90;5.47;;;15.00;88.30;;;;;;4985995;28;20474;-73
2022/09/16 02:21:13;;;;;;;6.90;5.00;;;15.00;87.80;;;;;;4986762;28;20433;-74
2022/09/16 02:23:50;;;;;;;7.70;5.27;;;15.10;86.80;;;;;;4979973;28;20552;-71
2022/09/16 02:26:19;;;;;;;8.67;5.47;;;15.00;86.30;;;;;;4978812;28;20482;-72
2022/09/16 02:28:48;;;;;;;8.90;4.60;;;15.00;85.90;;;;;;4985394;28;20442;-72
2022/09/16 02:31:15;;;;;;;9.50;4.67;;;14.90;84.30;;;;;;4986660;28;20434;-75
2022/09/16 02:33:47;;;;;;;5.33;4.10;;;15.00;84.30;;;;;;4988278;28;20439;-71
2022/09/16 02:36:18;;;;;;;6.60;4.00;;;14.90;84.10;;;;;;5040531;28;20515;-72
2022/09/16 02:38:48;;;;;;;9.97;4.30;;;14.90;84.40;;;;;;5039409;28;20501;-72
2022/09/16 02:41:14;;;;;;;8.13;4.87;;;14.70;84.10;;;;;;5040508;28;20445;-73
2022/09/16 02:43:41;;;;;;;7.40;5.07;;;14.70;84.30;;;;;;5036356;28;20432;-72
2022/09/16 02:46:44;;;;;;;6.13;4.30;;;14.70;84.40;;;;;;5040908;28;20498;-72
2022/09/16 02:49:21;;;;;;;10.00;4.23;;;14.70;84.70;;;;;;5034543;28;20416;-72
2022/09/16 02:52:08;;;;;;;9.50;3.70;;;14.60;84.30;;;;;;5040892;28;20479;-73
2022/09/16 02:54:59;;;;;;;8.30;4.33;;;14.60;84.70;;;;;;5039327;28;20883;-73
2022/09/16 02:57:26;;;;;;;7.50;4.47;;;14.50;84.40;;;;;;5040592;28;20415;-72
2022/09/16 02:59:52;;;;;;;6.63;3.80;;;14.50;84.10;;;;;;5043044;28;20424;-71
2022/09/16 03:02:17;;;;;;;7.90;4.37;;;14.50;84.40;;;;;;5041380;28;20420;-70
2022/09/16 03:04:43;;;;;;;5.30;3.70;;;14.50;84.40;;;;;;5038689;28;20480;-70
2022/09/16 03:07:10;;;;;;;7.33;3.70;;;14.50;84.90;;;;;;5043211;28;20259;-72
2022/09/16 03:09:40;;;;;;;10.03;4.60;;;14.60;84.30;;;;;;5043570;28;20778;-69
2022/09/16 03:12:06;;;;;;;5.73;4.30;;;14.60;84.10;;;;;;5040092;28;20431;-71
2022/09/16 03:14:56;;;;;;;7.00;4.10;;;14.70;84.00;;;;;;5044898;28;20472;-71
2022/09/16 03:17:59;;;;;;;7.37;4.03;;;14.70;83.80;;;;;;5041612;28;20186;-70
2022/09/16 03:20:33;;;;;;;7.23;4.63;;;14.80;83.70;;;;;;5042103;28;20436;-70
2022/09/16 03:23:13;;;;;;;9.03;3.50;;;14.90;82.80;;;;;;5043807;28;20429;-72
2022/09/16 03:26:02;;;;;;;5.17;3.67;;;14.90;82.10;;;;;;5047998;28;20955;-72
2022/09/16 03:28:43;;;;;;;6.10;3.87;;;15.00;82.50;;;;;;5045640;28;20444;-70
2022/09/16 03:31:41;;;;;;;7.43;4.00;;;15.10;82.70;;;;;;5043145;28;21028;-71
2022/09/16 03:34:16;;;;;;;8.73;4.63;;;15.10;83.00;;;;;;5034146;28;20477;-71
2022/09/16 03:36:48;;;;;;;6.47;3.67;;;15.10;83.30;;;;;;5043524;28;20454;-71
2022/09/16 03:39:14;;;;;;;8.23;4.30;;;15.10;83.40;;;;;;5047747;28;20433;-71
2022/09/16 03:41:40;;;;;;;5.23;3.50;;;15.00;82.70;;;;;;5046559;28;20443;-71
2022/09/16 03:44:06;;;;;;;6.97;3.80;;;15.00;82.70;;;;;;5043904;28;20530;-71
2022/09/16 03:46:31;;;;;;;7.70;3.80;;;15.10;82.40;;;;;;5045468;28;20641;-71
2022/09/16 03:48:57;;;;;;;7.40;3.20;;;15.10;82.80;;;;;;5047540;28;20294;-72
2022/09/16 03:51:24;;;;;;;9.17;3.77;;;15.10;82.70;;;;;;5039489;28;20279;-72
2022/09/16 03:53:51;;;;;;;13.97;3.93;;;15.00;80.90;;;;;;5047407;28;20436;-72
2022/09/16 03:56:17;;;;;;;6.57;4.40;;;14.80;80.50;;;;;;5050208;28;20502;-72
2022/09/16 03:58:42;;;;;;;4.73;3.30;;;14.90;81.20;;;;;;5051255;28;20939;-71
2022/09/16 04:01:08;;;;;;;7.30;4.17;;;14.90;82.10;;;;;;5049956;28;20185;-71
2022/09/16 04:03:36;;;;;;;8.37;3.97;;;15.00;82.40;;;;;;5045996;28;20237;-72
2022/09/16 04:06:02;;;;;;;7.60;3.63;;;15.00;82.20;;;;;;5046692;28;20754;-71
2022/09/16 04:08:28;;;;;;;6.20;3.50;;;15.00;82.10;;;;;;5043509;28;20447;-73
2022/09/16 04:11:01;;;;;;;4.43;3.40;;;15.00;82.20;;;;;;5044438;28;20550;-70
2022/09/16 04:13:32;;;;;;;10.53;3.97;;;15.10;82.70;;;;;;5040500;28;20659;-72
2022/09/16 04:15:58;;;;;;;6.00;3.60;;;15.00;82.80;;;;;;5045371;28;20468;-71
2022/09/16 04:18:24;;;;;;;9.20;4.40;;;14.90;82.40;;;;;;5038998;28;20567;-71
2022/09/16 04:20:54;;;;;;;8.60;3.80;;;14.90;82.80;;;;;;5047478;28;20514;-71
2022/09/16 04:23:21;;;;;;;7.27;4.03;;;14.90;83.60;;;;;;5048378;28;20198;-72
2022/09/16 04:25:56;;;;;;;7.23;3.90;;;14.90;84.00;;;;;;5047599;28;20478;-71
2022/09/16 04:28:22;;;;;;;9.23;3.77;;;14.90;83.70;;;;;;5048700;28;20468;-73
2022/09/16 04:30:47;;;;;;;10.07;3.60;;;14.90;82.70;;;;;;5052120;28;20446;-71
2022/09/16 04:33:13;;;;;;;7.53;3.47;;;14.90;81.20;;;;;;5054824;28;20200;-71
2022/09/16 04:35:39;;;;;;;7.80;4.07;;;14.90;81.40;;;;;;5049525;28;20297;-71
2022/09/16 04:38:04;;;;;;;8.23;3.50;;;14.90;81.80;;;;;;5044675;28;20226;-70
2022/09/16 04:40:30;;;;;;;6.10;3.87;;;14.90;81.90;;;;;;5052346;28;20205;-73
2022/09/16 04:42:55;;;;;;;6.97;3.53;;;15.00;82.10;;;;;;5051404;28;20193;-72
2022/09/16 04:45:21;;;;;;;4.50;3.53;;;15.00;82.20;;;;;;5052678;28;20209;-72
2022/09/16 04:47:47;;;;;;;6.47;3.73;;;15.00;81.90;;;;;;5054935;28;20185;-72
2022/09/16 04:50:12;;;;;;;8.63;4.07;;;15.10;81.80;;;;;;5053138;28;20182;-70
2022/09/16 04:52:38;;;;;;;6.03;3.03;;;15.00;82.80;;;;;;5048246;28;20666;-68
2022/09/16 04:55:04;;;;;;;5.43;3.73;;;15.00;83.60;;;;;;5048710;28;20298;-69
2022/09/16 04:57:33;;;;;;;5.63;3.50;;;15.10;84.40;;;;;;5045288;28;20210;-69
2022/09/16 04:59:59;;;;;;;7.97;3.70;;;15.20;84.90;;;;;;5046153;28;20433;-68
2022/09/16 05:02:24;;;;;;;9.50;4.10;;;15.20;85.00;;;;;;5049141;28;20437;-68
2022/09/16 05:04:50;;;;;;;6.07;3.70;;;15.10;83.80;;;;;;5045318;28;20219;-69
2022/09/16 05:07:15;;;;;;;6.77;3.90;;;15.00;83.70;;;;;;5048217;28;20264;-69
2022/09/16 05:09:42;;;;;;;6.17;3.30;;;15.10;83.40;;;;;;5053288;28;20186;-69
2022/09/16 05:12:07;;;;;;;8.10;4.00;;;15.10;84.10;;;;;;5052965;28;20192;-69
2022/09/16 05:14:33;;;;;;;8.03;3.77;;;15.10;85.50;;;;;;5057300;28;20455;-71
2022/09/16 05:16:58;;;;;;;8.80;4.03;;;15.00;85.20;;;;;;5058773;28;20265;-71
2022/09/16 05:19:24;;;;;;;5.20;3.67;;;15.10;86.30;;;;;;5050633;28;20289;-70
2022/09/16 05:21:50;;;;;;;10.20;4.13;;;15.00;86.80;;;;;;5055505;28;20181;-70
2022/09/16 05:24:15;;;;;;;9.93;5.03;;;14.90;86.60;;;;;;5046392;28;20205;-71
2022/09/16 05:26:42;;;;;;;5.73;3.53;;;14.80;87.30;;;;;;5046952;28;20205;-69
2022/09/16 05:29:16;;;;;;;10.20;4.93;;;14.60;86.60;;;;;;5045910;28;20232;-72
2022/09/16 05:31:44;;;;;;;8.23;5.17;;;14.50;86.20;;;;;;5043143;28;20494;-70
2022/09/16 05:34:28;;;;;;;11.23;4.73;;;14.40;86.00;;;;;;5041752;28;20455;-70
2022/09/16 05:36:55;;;;;;;8.90;5.03;;;14.40;87.10;;;;;;5052060;28;20472;-70
2022/09/16 05:39:21;;;;;;;8.73;4.13;;;14.50;86.80;;;;;;5050108;28;20536;-71
2022/09/16 05:41:48;;;;;;;8.90;4.90;;;14.40;86.90;;;;;;5048696;28;20439;-69
2022/09/16 05:44:13;;;;;;;10.73;5.63;;;14.40;87.30;;;;;;5043345;28;20515;-69
2022/09/16 05:46:40;;;;;;;10.90;4.60;;;14.50;87.80;;;;;;5052816;28;20817;-71
2022/09/16 05:49:06;;;;;;;8.37;5.43;;;14.30;87.70;;;;;;5049596;28;20185;-71
2022/09/16 05:51:32;;;;;;;11.80;5.00;;;14.20;87.60;;;;;;5053673;28;20431;-71
2022/09/16 05:53:58;;;;;;;10.80;4.77;;;14.40;88.00;;;;;;5047323;28;20455;-71
2022/09/16 05:56:26;;;;;;;7.50;4.00;;;14.30;87.40;;;;;;5054342;28;20191;-71
2022/09/16 05:58:53;;;;;;;11.00;4.70;;;14.40;87.70;;;;;;5058087;28;20416;-72
2022/09/16 06:01:21;;;;;;;12.13;4.60;;;14.50;88.40;;;;;;5051892;28;20416;-71
2022/09/16 06:03:48;;;;;;;11.90;5.37;;;14.50;88.60;;;;;;5057870;28;20435;-72
2022/09/16 06:06:26;;;;;;;8.20;4.63;;;14.30;87.80;;;;;;5046666;28;20468;-72
2022/09/16 06:08:53;;;;;;;9.63;4.53;;;14.30;89.60;;;;;;5057949;28;20433;-71
2022/09/16 06:11:19;;;;;;;7.53;4.90;;;14.30;89.00;;;;;;5052012;28;20476;-71
2022/09/16 06:13:45;;;;;;;5.43;4.70;;;14.20;89.20;;;;;;5055487;28;20412;-71
2022/09/16 06:16:13;;;;;;;10.67;5.43;;;14.20;89.90;;;;;;5049496;28;20227;-71
2022/09/16 06:18:39;;;;;;;17.43;5.80;;;14.20;90.10;;;;;;5052634;28;20228;-71
2022/09/16 06:21:08;;;;;;;8.13;4.57;;;14.30;90.30;;;;;;5050415;28;20431;-70
2022/09/16 06:23:35;;;;;;;10.07;6.03;;;14.10;88.40;;;;;;5051984;28;20602;-71
2022/09/16 06:26:03;;;;;;;8.93;5.40;;;14.00;89.90;;;;;;5050713;28;20495;-70
2022/09/16 06:28:29;;;;;;;10.00;5.17;;;14.10;90.50;;;;;;5056315;28;20442;-70
2022/09/16 06:31:10;;;;;;;12.03;5.23;;;14.10;90.40;;;;;;5047817;28;20428;-70
2022/09/16 06:33:36;;;;;;;8.27;4.70;;;14.00;89.60;;;;;;5045035;28;20419;-71
2022/09/16 06:36:06;;;;;;;7.27;4.43;;;13.90;88.40;;;;;;5044831;28;20459;-72
2022/09/16 06:38:32;;;;;;;9.27;4.70;;;14.00;89.30;;;;;;5045087;28;20852;-72
2022/09/16 06:41:02;;;;;;;11.03;5.17;;;14.00;89.30;;;;;;5053731;28;20432;-70
2022/09/16 06:43:28;;;;;;;8.47;5.30;;;14.10;89.90;;;;;;5046508;28;20280;-72
2022/09/16 06:46:03;;;;;;;8.10;5.10;;;14.20;90.00;;;;;;5054036;28;20510;-70
2022/09/16 06:48:31;;;;;;;6.43;3.83;;;14.20;90.20;;;;;;5049767;28;20716;-70
2022/09/16 06:51:08;;;;;;;10.40;5.10;;;14.10;89.20;;;;;;5054947;28;20850;-70
2022/09/16 06:53:34;;;;;;;8.50;5.00;;;14.20;89.50;;;;;;5051815;28;20506;-70
2022/09/16 06:56:01;;;;;;;10.47;5.00;;;14.00;88.90;;;;;;5046041;28;20519;-70
2022/09/16 06:58:30;;;;;;;11.57;5.47;;;13.80;90.60;;;;;;5048123;28;20498;-70
2022/09/16 07:00:56;;;;;;;8.60;5.10;;;13.70;90.80;;;;;;5051612;28;20510;-71
2022/09/16 07:03:22;;;;;;;8.57;5.23;;;13.80;91.50;;;;;;5054868;28;20467;-70
2022/09/16 07:06:00;;;;;;;7.60;4.83;;;13.80;91.60;;;;;;5048946;28;20224;-71
2022/09/16 07:08:28;;;;;;;7.47;3.70;;;13.80;91.40;;;;;;5047523;28;20770;-69
2022/09/16 07:11:11;;;;;;;7.00;4.40;;;13.90;91.50;;;;;;5049740;28;20547;-69
2022/09/16 07:13:37;;;;;;;7.27;5.07;;;13.70;90.40;;;;;;5048380;28;20480;-73
2022/09/16 07:16:09;;;;;;;14.43;5.50;;;13.60;91.50;;;;;;5042578;28;20438;-71
2022/09/16 07:18:34;;;;;;;9.37;4.80;;;13.50;92.50;;;;;;5049786;28;20459;-71
2022/09/16 07:21:05;;;;;;;8.77;5.67;;;13.20;92.60;;;;;;5043283;28;20430;-71
2022/09/16 07:23:32;;;;;;;13.73;5.80;;;13.10;93.30;;;;;;5047699;28;20193;-70
2022/09/16 07:26:00;;;;;;;10.70;5.80;;;12.90;93.60;;;;;;5040371;28;20991;-70
2022/09/16 07:28:26;;;;;;;7.27;4.93;;;12.90;94.10;;;;;;5048512;28;20419;-70
2022/09/16 07:30:51;;;;;;;14.07;6.43;;;13.00;94.30;;;;;;5042581;28;20440;-70
2022/09/16 07:33:17;;;;;;;12.83;6.23;;;13.00;94.40;;;;;;5048261;28;20185;-70
2022/09/16 07:35:43;;;;;;;13.60;6.43;;;13.10;94.60;;;;;;5047020;28;20208;-70
2022/09/16 07:38:08;;;;;;;8.20;5.90;;;13.10;94.60;;;;;;5055327;28;20221;-72
2022/09/16 07:40:34;;;;;;;13.27;6.77;;;13.10;94.80;;;;;;5050998;28;20184;-70
2022/09/16 07:42:59;;;;;;;10.50;5.90;;;13.30;95.10;;;;;;5055162;28;20651;-70
2022/09/16 07:45:25;;;;;;;15.60;6.43;;;13.50;95.20;;;;;;5049950;28;20216;-71
2022/09/16 07:47:50;;;;;;;15.50;6.77;;;13.70;95.20;;;;;;5054533;28;20185;-70
2022/09/16 07:50:16;;;;;;;12.23;5.33;;;13.70;94.80;;;;;;5052973;28;20184;-71
2022/09/16 07:52:42;;;;;;;16.20;6.23;;;13.70;94.60;;;;;;5049373;28;20215;-70
2022/09/16 07:55:08;;;;;;;11.97;6.93;;;13.70;94.50;;;;;;5045390;28;20925;-71
2022/09/16 07:57:34;;;;;;;10.00;6.13;;;13.80;94.10;;;;;;5043427;28;20192;-69
2022/09/16 08:00:00;;;;;;;9.40;6.07;;;13.90;93.90;;;;;;5043172;28;20431;-70
2022/09/16 08:02:25;;;;;;;11.20;7.10;;;14.00;93.60;;;;;;5046055;28;20194;-71
2022/09/16 08:04:51;;;;;;;11.90;7.20;;;14.00;93.50;;;;;;5047657;28;20303;-69
2022/09/16 08:07:17;;;;;;;10.17;6.03;;;13.90;92.90;;;;;;5046330;28;20273;-70
2022/09/16 08:09:42;;;;;;;12.70;7.00;;;13.90;92.90;;;;;;5048472;28;20192;-70
2022/09/16 08:12:09;;;;;;;7.90;5.60;;;14.00;93.00;;;;;;5048496;28;20493;-70
2022/09/16 08:14:35;;;;;;;7.70;6.00;;;14.20;93.00;;;;;;5044917;28;20797;-71
2022/09/16 08:17:02;;;;;;;9.20;5.90;;;14.30;92.80;;;;;;5048339;28;20507;-70
2022/09/16 08:19:27;;;;;;;11.90;6.83;;;14.40;92.60;;;;;;5051011;28;20432;-72
2022/09/16 08:21:53;;;;;;;14.87;8.37;;;14.50;92.30;;;;;;5041489;28;20918;-71
2022/09/16 08:24:19;;;;;;;25.30;13.17;;;14.50;92.20;;;;;;5043292;28;20671;-71
2022/09/16 08:26:44;;;;;;;14.43;7.73;;;14.50;92.00;;;;;;5039642;28;20213;-69
2022/09/16 08:29:10;;;;;;;12.60;7.37;;;14.50;92.00;;;;;;5051235;28;20643;-70
2022/09/16 08:31:36;;;;;;;13.60;6.27;;;14.40;91.20;;;;;;5042315;28;20183;-71
2022/09/16 08:34:02;;;;;;;10.10;6.10;;;14.40;91.30;;;;;;5046159;28;20204;-70
2022/09/16 08:36:28;;;;;;;12.00;6.50;;;14.50;91.10;;;;;;5048877;28;20436;-70
2022/09/16 08:38:55;;;;;;;13.70;7.23;;;14.60;91.10;;;;;;5047916;28;20432;-69
2022/09/16 08:41:51;;;;;;;12.57;7.07;;;14.70;91.20;;;;;;5041312;28;20268;-70
2022/09/16 08:44:41;;;;;;;16.27;7.57;;;14.80;90.60;;;;;;5046106;28;20485;-70
2022/09/16 08:47:27;;;;;;;13.63;7.20;;;14.80;90.20;;;;;;5044372;28;20474;-70
2022/09/16 08:49:55;;;;;;;18.20;7.90;;;14.50;90.30;;;;;;5044277;28;21202;-71
2022/09/16 08:52:31;;;;;;;10.40;6.27;;;14.40;90.70;;;;;;5048143;28;20416;-71
2022/09/16 08:55:11;;;;;;;12.03;7.30;;;14.30;91.30;;;;;;5046074;28;20478;-70
2022/09/16 08:57:46;;;;;;;14.93;6.90;;;14.30;91.20;;;;;;5046461;28;20455;-70
2022/09/16 09:00:15;;;;;;;13.57;7.63;;;14.50;91.30;;;;;;5034236;28;20810;-69
2022/09/16 09:03:06;;;;;;;13.93;7.50;;;14.50;91.10;;;;;;5042155;28;20431;-70
2022/09/16 09:05:56;;;;;;;12.10;5.80;;;14.70;91.70;;;;;;5039729;28;21198;-70
2022/09/16 09:08:50;;;;;;;11.70;5.10;;;14.80;91.00;;;;;;5039997;28;20415;-69
2022/09/16 09:11:39;;;;;;;7.27;5.60;;;14.60;88.40;;;;;;5047901;28;20427;-70
2022/09/16 09:14:23;;;;;;;9.77;5.80;;;14.50;89.50;;;;;;5038515;28;20464;-70
2022/09/16 09:17:09;;;;;;;7.03;5.20;;;14.60;89.90;;;;;;5045548;28;20440;-71
2022/09/16 09:19:51;;;;;;;17.90;6.60;;;14.80;90.00;;;;;;5013636;28;20456;-70
2022/09/16 09:22:37;;;;;;;8.00;5.07;;;14.90;89.70;;;;;;5039559;28;20411;-69
2022/09/16 09:25:41;;;;;;;9.63;5.50;;;14.70;88.60;;;;;;5041691;28;20471;-71
2022/09/16 09:28:34;;;;;;;8.03;5.30;;;14.60;88.10;;;;;;5045653;28;20448;-70
2022/09/16 09:31:25;;;;;;;11.37;4.90;;;14.70;88.60;;;;;;5056967;28;20415;-70
2022/09/16 09:34:13;;;;;;;9.77;5.13;;;14.60;87.40;;;;;;5045075;28;20460;-71
2022/09/16 09:36:44;;;;;;;5.43;4.53;;;14.60;87.70;;;;;;5037928;28;20938;-70
2022/09/16 09:39:22;;;;;;;7.00;4.47;;;14.70;87.70;;;;;;5042701;28;20483;-72
2022/09/16 09:41:58;;;;;;;5.37;4.50;;;14.70;88.10;;;;;;5038252;28;20495;-70
2022/09/16 09:44:36;;;;;;;5.70;4.70;;;14.60;89.50;;;;;;5041390;28;20489;-69
2022/09/16 09:47:12;;;;;;;9.30;5.47;;;14.60;89.30;;;;;;5038304;28;20464;-72
2022/09/16 09:49:53;;;;;;;6.83;4.33;;;14.50;89.50;;;;;;5041498;28;20746;-71
2022/09/16 09:52:40;;;;;;;10.53;5.80;;;14.50;89.90;;;;;;5040786;28;20452;-70
2022/09/16 09:55:17;;;;;;;9.87;5.23;;;14.50;90.10;;;;;;5040567;28;20452;-71
2022/09/16 09:58:04;;;;;;;8.90;5.33;;;14.50;89.60;;;;;;5040647;28;20423;-72
2022/09/16 10:00:30;;;;;;;11.90;5.53;;;14.40;89.50;;;;;;5036895;28;20439;-72
2022/09/16 10:03:03;;;;;;;7.23;5.30;;;14.40;90.50;;;;;;5041443;28;20518;-72
2022/09/16 10:05:29;;;;;;;7.70;5.30;;;14.40;90.20;;;;;;5050415;28;20231;-71
2022/09/16 10:07:59;;;;;;;8.40;5.37;;;14.40;90.50;;;;;;5047855;28;20444;-70
2022/09/16 10:10:27;;;;;;;10.70;5.60;;;14.40;90.70;;;;;;5039856;28;20193;-73
2022/09/16 10:12:53;;;;;;;9.47;5.20;;;14.40;89.70;;;;;;5045114;28;20443;-74
2022/09/16 10:15:19;;;;;;;9.50;5.30;;;14.30;90.20;;;;;;5042392;28;20456;-72
2022/09/16 10:17:49;;;;;;;9.60;5.10;;;14.40;90.30;;;;;;5042240;28;20205;-73
2022/09/16 10:20:30;;;;;;;15.67;5.77;;;14.30;89.70;;;;;;5039423;28;20848;-73
2022/09/16 10:23:04;;;;;;;13.83;5.80;;;14.30;89.00;;;;;;5041836;28;20511;-71
2022/09/16 10:25:31;;;;;;;9.77;4.73;;;14.30;89.60;;;;;;5039978;28;20489;-71
2022/09/16 10:28:03;;;;;;;12.03;4.97;;;14.40;89.90;;;;;;5040443;28;20420;-74
2022/09/16 10:30:44;;;;;;;8.67;4.83;;;14.30;90.20;;;;;;5038274;28;20442;-71
2022/09/16 10:33:23;;;;;;;10.97;4.80;;;14.20;89.90;;;;;;5037192;28;20407;-71
2022/09/16 10:36:16;;;;;;;9.40;4.40;;;14.20;89.70;;;;;;5038903;28;20562;-72
2022/09/16 10:38:50;;;;;;;7.40;4.60;;;14.30;89.70;;;;;;5037597;28;20460;-73
2022/09/16 10:41:31;;;;;;;10.00;5.23;;;14.40;89.60;;;;;;5042602;28;20428;-72
2022/09/16 10:44:11;;;;;;;8.73;5.20;;;14.40;90.00;;;;;;5033549;28;20485;-73
2022/09/16 10:46:37;;;;;;;9.23;5.00;;;14.50;88.60;;;;;;5037167;28;21007;-71
2022/09/16 10:49:10;;;;;;;7.30;5.00;;;14.50;88.10;;;;;;5049062;28;20433;-72
2022/09/16 10:51:36;;;;;;;9.60;5.10;;;14.50;87.10;;;;;;5038456;28;20183;-71
2022/09/16 10:54:05;;;;;;;6.70;4.33;;;14.50;87.00;;;;;;5035082;28;20950;-71
2022/09/16 10:56:47;;;;;;;8.27;5.20;;;14.50;87.30;;;;;;5041979;28;20276;-71
2022/09/16 10:59:14;;;;;;;6.57;4.80;;;14.70;88.10;;;;;;5044885;28;20442;-71
2022/09/16 11:01:48;;;;;;;9.63;4.87;;;14.80;88.10;;;;;;5037644;28;20429;-72
2022/09/16 11:04:39;;;;;;;7.30;4.93;;;14.90;88.10;;;;;;5043316;28;20459;-72
2022/09/16 11:07:34;;;;;;;7.23;4.63;;;14.80;88.30;;;;;;5041006;28;20492;-73
2022/09/16 11:10:09;;;;;;;7.13;5.27;;;14.80;88.60;;;;;;5043340;28;21308;-71
2022/09/16 11:13:03;;;;;;;11.33;4.90;;;14.80;88.30;;;;;;5040215;28;20429;-72
2022/09/16 11:15:58;;;;;;;6.70;5.20;;;14.70;88.30;;;;;;5037721;28;20457;-72
2022/09/16 11:18:40;;;;;;;8.03;4.90;;;14.70;88.70;;;;;;5039663;28;20945;-72
2022/09/16 11:21:23;;;;;;;10.90;6.50;;;14.60;88.90;;;;;;5033998;28;20427;-72
2022/09/16 11:24:08;;;;;;;11.00;5.17;;;14.70;89.30;;;;;;5038413;28;20415;-72
2022/09/16 11:26:38;;;;;;;8.13;5.13;;;14.80;89.30;;;;;;5039311;28;21015;-72
2022/09/16 11:29:31;;;;;;;6.87;5.30;;;14.80;88.30;;;;;;5041195;28;20970;-72
2022/09/16 11:32:14;;;;;;;12.70;5.57;;;14.80;88.90;;;;;;5041477;28;20515;-71
2022/09/16 11:34:46;;;;;;;6.50;4.67;;;14.70;88.40;;;;;;5041597;28;20450;-72
2022/09/16 11:37:23;;;;;;;8.50;5.20;;;14.80;88.40;;;;;;5042121;28;20404;-72
2022/09/16 11:40:13;;;;;;;8.40;4.77;;;14.90;88.30;;;;;;5042944;28;20414;-71
2022/09/16 11:42:46;;;;;;;7.70;4.17;;;14.90;87.30;;;;;;5045208;28;20965;-73
2022/09/16 11:45:28;;;;;;;8.33;4.60;;;14.90;86.00;;;;;;5038660;28;20468;-72
2022/09/16 11:48:22;;;;;;;5.97;4.23;;;14.90;85.50;;;;;;5046389;28;20496;-70
2022/09/16 11:51:11;;;;;;;5.00;3.90;;;15.10;85.30;;;;;;5045862;28;20415;-72
2022/09/16 11:53:57;;;;;;;7.33;3.70;;;15.30;86.00;;;;;;5041047;28;20413;-72
2022/09/16 11:56:35;;;;;;;3.60;2.90;;;15.40;80.80;;;;;;5048969;28;20421;-72
2022/09/16 11:59:13;;;;;;;7.10;4.00;;;15.40;80.60;;;;;;5044773;28;20426;-73
2022/09/16 12:01:50;;;;;;;6.70;4.00;;;15.50;80.00;;;;;;5045084;28;20439;-73
2022/09/16 12:04:41;;;;;;;5.20;3.60;;;15.30;78.60;;;;;;5045286;28;21026;-72
2022/09/16 12:07:36;;;;;;;7.20;4.10;;;15.50;80.60;;;;;;5040104;28;20422;-73
2022/09/16 12:10:11;;;;;;;7.73;3.60;;;16.00;79.90;;;;;;5049553;28;20806;-73
2022/09/16 12:12:43;;;;;;;7.03;3.80;;;16.00;78.60;;;;;;5043947;28;20415;-73
2022/09/16 12:15:19;;;;;;;8.63;2.90;;;16.20;79.70;;;;;;5047160;28;20456;-73
2022/09/16 12:18:01;;;;;;;5.10;3.30;;;16.40;75.50;;;;;;5051221;28;20436;-71
2022/09/16 12:20:39;;;;;;;5.83;3.03;;;16.70;74.50;;;;;;5050125;28;20476;-73
2022/09/16 12:23:21;;;;;;;7.03;3.00;;;16.80;71.30;;;;;;5045349;28;20430;-71
2022/09/16 12:26:08;;;;;;;2.93;2.70;;;16.40;73.60;;;;;;5036678;28;20478;-71
2022/09/16 12:29:04;;;;;;;4.50;2.73;;;16.20;75.50;;;;;;5044005;28;20425;-71
2022/09/16 12:31:41;;;;;;;5.77;2.60;;;16.20;73.00;;;;;;5025835;28;20853;-72
2022/09/16 12:34:10;;;;;;;3.73;2.47;;;15.90;71.30;;;;;;5037639;28;20536;-72
2022/09/16 12:36:39;;;;;;;5.07;2.93;;;15.80;71.70;;;;;;5040258;28;20509;-73
2022/09/16 12:39:05;;;;;;;4.93;2.93;;;15.70;73.70;;;;;;5043804;28;20546;-72
2022/09/16 12:42:08;;;;;;;4.07;2.97;;;15.60;73.50;;;;;;5042032;28;21195;-72
2022/09/16 12:45:08;;;;;;;5.37;3.33;;;15.50;71.10;;;;;;5038857;28;20295;-72
2022/09/16 12:47:56;;;;;;;4.30;2.60;;;15.50;71.70;;;;;;5040694;28;20451;-73
2022/09/16 12:50:28;;;;;;;8.53;2.70;;;15.70;72.30;;;;;;5043424;28;20987;-73
2022/09/16 12:53:05;;;;;;;3.93;2.80;;;15.90;70.20;;;;;;5045029;28;20513;-72
2022/09/16 12:55:42;;;;;;;4.33;2.57;;;16.00;70.80;;;;;;5046626;28;20454;-71
2022/09/16 12:58:35;;;;;;;4.93;2.80;;;16.00;70.20;;;;;;5046750;28;20422;-73
2022/09/16 13:01:21;;;;;;;3.27;2.93;;;16.00;71.00;;;;;;5040183;28;20430;-72
2022/09/16 13:03:55;;;;;;;5.60;3.07;;;15.90;71.40;;;;;;5037621;28;20429;-69
2022/09/16 13:06:28;;;;;;;5.03;2.80;;;15.90;71.00;;;;;;5046396;28;20908;-74
2022/09/16 13:08:54;;;;;;;5.50;3.00;;;15.70;71.40;;;;;;5039434;28;20421;-71
2022/09/16 13:11:28;;;;;;;5.00;2.97;;;15.60;72.30;;;;;;5045810;28;20515;-72
2022/09/16 13:13:58;;;;;;;3.87;2.37;;;15.70;72.70;;;;;;5036856;28;20818;-72